Time;durP1;ratioP1;P1;durP2;ratioP2;P2;SDS_P1;SDS_P2;PMS_P1;PMS_P2;Temp;Humidity;BMP_temperature;BMP_pressure;BME280_temperature;BME280_humidity;BME280_pressure;Samples;Min_cycle;Max_cycle;Signal;HPM_P1;HPM_P2
2022/12/27 00:00:33;;;;;;;5.87;4.00;;;6.20;1.00;;;;;;6282608;28;20730;-56
2022/12/27 00:03:36;;;;;;;10.50;4.20;;;6.20;1.00;;;;;;6304836;28;20232;-57
2022/12/27 00:06:41;;;;;;;8.17;3.83;;;6.30;1.00;;;;;;6308154;28;20600;-56
2022/12/27 00:09:44;;;;;;;4.70;4.20;;;6.30;1.00;;;;;;6295670;28;20318;-56
2022/12/27 00:12:47;;;;;;;8.83;4.13;;;5.90;1.00;;;;;;6307869;28;20240;-56
2022/12/27 00:15:50;;;;;;;7.63;4.10;;;6.00;1.00;;;;;;6307728;28;20237;-57
2022/12/27 00:18:53;;;;;;;8.23;4.37;;;6.10;1.00;;;;;;6282008;28;20240;-56
2022/12/27 00:21:58;;;;;;;5.33;4.10;;;5.70;1.00;;;;;;6282935;28;20471;-56
2022/12/27 00:25:01;;;;;;;7.27;4.10;;;5.80;1.00;;;;;;6281874;28;20260;-55
2022/12/27 00:28:04;;;;;;;11.37;4.13;;;5.60;1.00;;;;;;6282153;28;20669;-56
2022/12/27 00:31:08;;;;;;;8.07;4.23;;;5.60;1.00;;;;;;6294711;28;21123;-56
2022/12/27 00:34:11;;;;;;;7.57;3.90;;;5.60;1.00;;;;;;6307015;28;20410;-56
2022/12/27 00:37:21;;;;;;;6.20;4.13;;;5.60;1.00;;;;;;6303686;28;20240;-56
2022/12/27 00:40:24;;;;;;;11.27;4.10;;;5.60;1.00;;;;;;6298878;28;20305;-55
2022/12/27 00:43:27;;;;;;;10.10;4.20;;;5.60;1.00;;;;;;6278081;28;20261;-56
2022/12/27 00:46:30;;;;;;;6.20;4.47;;;5.80;1.00;;;;;;6277329;28;20499;-56
2022/12/27 00:49:33;;;;;;;5.40;3.90;;;5.40;1.00;;;;;;6282251;28;20294;-56
2022/12/27 00:52:38;;;;;;;5.23;4.20;;;5.70;1.00;;;;;;6282959;28;20427;-55
2022/12/27 00:55:43;;;;;;;4.50;3.90;;;5.60;1.00;;;;;;6282285;28;20401;-55
2022/12/27 00:58:47;;;;;;;6.53;4.00;;;5.40;1.00;;;;;;6281558;28;20241;-56
2022/12/27 01:01:50;;;;;;;6.97;3.80;;;5.50;1.00;;;;;;6284099;28;20638;-56
2022/12/27 01:04:53;;;;;;;4.03;3.77;;;5.20;1.00;;;;;;6293487;28;20866;-55
2022/12/27 01:07:58;;;;;;;12.60;4.20;;;5.30;1.00;;;;;;6300071;28;20232;-55
2022/12/27 01:11:01;;;;;;;6.97;4.03;;;5.10;1.00;;;;;;6294789;28;20470;-55
2022/12/27 01:14:06;;;;;;;6.27;3.90;;;5.20;1.00;;;;;;6274883;28;20427;-55
2022/12/27 01:17:09;;;;;;;9.97;4.33;;;5.30;1.00;;;;;;6281287;28;20245;-55
2022/12/27 01:20:12;;;;;;;5.43;4.00;;;5.00;1.00;;;;;;6281866;28;20251;-55
2022/12/27 01:23:17;;;;;;;6.17;4.30;;;5.00;1.00;;;;;;6281501;28;20278;-56
2022/12/27 01:26:23;;;;;;;7.57;3.93;;;5.00;1.00;;;;;;6272048;28;20230;-56
2022/12/27 01:29:26;;;;;;;4.53;3.93;;;4.80;1.00;;;;;;6278985;28;20247;-54
2022/12/27 01:32:32;;;;;;;12.13;5.03;;;4.90;1.00;;;;;;6293427;28;20236;-55
2022/12/27 01:35:35;;;;;;;5.57;3.93;;;4.70;1.00;;;;;;6290880;28;20239;-57
2022/12/27 01:38:41;;;;;;;9.07;5.10;;;5.00;1.00;;;;;;6304336;28;20260;-56
2022/12/27 01:45:14;;;;;;;11.23;4.00;;;4.80;1.00;;;;;;6274390;28;20236;-56
2022/12/27 01:48:21;;;;;;;10.37;4.40;;;4.50;1.00;;;;;;6280908;28;20254;-55
2022/12/27 01:51:24;;;;;;;6.07;4.50;;;4.70;1.00;;;;;;6281193;28;20419;-55
2022/12/27 01:54:28;;;;;;;8.70;4.83;;;4.70;1.00;;;;;;6272480;28;20523;-54
2022/12/27 01:57:31;;;;;;;7.90;4.43;;;4.60;1.00;;;;;;6277622;28;20240;-55
2022/12/27 02:00:34;;;;;;;10.20;4.57;;;4.70;1.00;;;;;;6273753;28;20611;-55
2022/12/27 02:03:40;;;;;;;7.70;4.37;;;4.80;1.00;;;;;;6294841;28;20240;-55
2022/12/27 02:06:44;;;;;;;8.10;4.43;;;4.70;1.00;;;;;;6298429;28;20247;-54
2022/12/27 02:09:54;;;;;;;15.10;5.43;;;4.60;1.00;;;;;;6305301;28;20246;-56
2022/12/27 02:12:58;;;;;;;6.50;4.70;;;4.30;1.00;;;;;;6301853;28;20232;-54
2022/12/27 02:16:01;;;;;;;9.70;5.40;;;4.30;1.00;;;;;;6275567;28;20752;-55
2022/12/27 02:19:05;;;;;;;8.47;5.03;;;4.30;1.00;;;;;;6280901;28;20240;-60
2022/12/27 02:24:01;;;;;;;8.67;5.03;;;4.50;1.00;;;;;;6287332;28;20233;-61
2022/12/27 02:26:31;;;;;;;8.73;4.57;;;4.10;1.00;;;;;;6275221;28;20253;-56
2022/12/27 02:29:51;;;;;;;10.00;5.17;;;4.30;1.00;;;;;;6276554;28;20229;-56
2022/12/27 02:33:00;;;;;;;6.87;4.80;;;4.40;1.00;;;;;;6298886;28;20237;-55
2022/12/27 02:36:07;;;;;;;5.43;4.37;;;4.40;1.00;;;;;;6301580;28;20236;-55
2022/12/27 02:39:13;;;;;;;9.90;4.63;;;4.30;1.00;;;;;;6294099;28;20714;-56
2022/12/27 02:53:04;;;;;;;5.60;4.57;;;4.20;1.00;;;;;;6266031;28;20233;-56
2022/12/27 03:03:38;;;;;;;13.33;4.73;;;4.00;1.00;;;;;;6304347;28;20649;-56
2022/12/27 03:07:01;;;;;;;7.03;4.93;;;4.20;1.00;;;;;;6296104;28;20241;-56
2022/12/27 03:17:08;;;;;;;5.27;4.20;;;3.90;1.00;;;;;;6284556;28;20238;-55
2022/12/27 03:27:07;;;;;;;12.70;5.67;;;4.10;1.00;;;;;;6284585;28;20238;-55
2022/12/27 03:33:34;;;;;;;7.27;5.00;;;4.10;1.00;;;;;;6308602;28;20399;-56
2022/12/27 03:40:06;;;;;;;5.20;4.70;;;4.00;1.00;;;;;;6308675;28;20240;-56
2022/12/27 03:43:12;;;;;;;8.77;4.77;;;4.00;1.00;;;;;;6285062;28;20694;-56
2022/12/27 03:46:33;;;;;;;8.03;4.67;;;3.80;1.00;;;;;;6284899;28;20712;-55
2022/12/27 03:49:41;;;;;;;8.53;5.50;;;3.90;1.00;;;;;;6291132;28;20248;-56
2022/12/27 03:52:49;;;;;;;7.13;4.50;;;4.10;1.00;;;;;;6280799;28;20243;-56
2022/12/27 03:55:53;;;;;;;4.87;4.27;;;4.00;1.00;;;;;;6283967;28;20241;-56
2022/12/27 03:58:59;;;;;;;7.17;5.33;;;3.90;1.00;;;;;;6283264;28;20617;-56
2022/12/27 04:02:02;;;;;;;6.20;4.50;;;4.20;1.00;;;;;;6292647;28;20646;-55
2022/12/27 04:05:06;;;;;;;6.10;4.60;;;4.20;1.00;;;;;;6295732;28;20228;-56
2022/12/27 04:34:55;;;;;;;6.17;4.73;;;4.10;1.00;;;;;;6282340;28;20233;-56
2022/12/27 04:37:58;;;;;;;4.63;4.40;;;3.90;1.00;;;;;;6281527;28;20264;-56
2022/12/27 04:57:46;;;;;;;8.30;5.07;;;3.90;1.00;;;;;;6289486;28;20311;-56
2022/12/27 05:04:16;;;;;;;7.53;5.43;;;3.90;1.00;;;;;;6280249;28;20344;-55
2022/12/27 05:14:03;;;;;;;6.60;5.10;;;4.20;1.00;;;;;;6287712;28;20491;-55
2022/12/27 05:17:06;;;;;;;6.27;4.80;;;4.00;1.00;;;;;;6277859;28;20705;-60
2022/12/27 05:20:10;;;;;;;9.23;5.27;;;4.20;1.00;;;;;;6281770;28;20233;-57
2022/12/27 05:26:34;;;;;;;10.17;5.20;;;4.40;1.00;;;;;;6296704;28;20463;-56
2022/12/27 05:29:39;;;;;;;5.60;5.07;;;4.20;1.00;;;;;;6303893;28;20240;-57
2022/12/27 05:32:42;;;;;;;6.03;5.00;;;4.10;1.00;;;;;;6281752;28;20241;-55
2022/12/27 05:35:45;;;;;;;7.80;4.47;;;4.30;1.00;;;;;;6297327;28;20233;-55
2022/12/27 05:38:48;;;;;;;7.50;4.40;;;4.30;1.00;;;;;;6297370;27;20228;-55
2022/12/27 05:41:51;;;;;;;5.50;5.10;;;4.40;1.00;;;;;;6299187;28;20233;-56
2022/12/27 05:44:55;;;;;;;6.73;4.50;;;4.60;1.00;;;;;;6304886;28;20259;-56
2022/12/27 05:47:59;;;;;;;5.27;4.87;;;4.30;1.00;;;;;;6300947;28;20334;-55
2022/12/27 05:51:05;;;;;;;5.43;4.77;;;4.40;1.00;;;;;;6284540;28;20728;-56
2022/12/27 05:54:08;;;;;;;5.07;4.57;;;4.30;1.00;;;;;;6286688;28;21650;-56
2022/12/27 05:57:11;;;;;;;6.87;4.17;;;4.70;1.00;;;;;;6286884;28;20362;-55
2022/12/27 06:00:16;;;;;;;5.00;4.60;;;4.40;1.00;;;;;;6287790;28;20233;-56
2022/12/27 06:03:19;;;;;;;5.00;4.53;;;4.30;1.00;;;;;;6278738;28;20584;-56
2022/12/27 06:06:23;;;;;;;7.97;4.73;;;4.40;1.00;;;;;;6278755;28;20626;-55
2022/12/27 06:09:26;;;;;;;4.87;4.37;;;4.30;1.00;;;;;;6305272;28;20243;-56
2022/12/27 06:12:29;;;;;;;10.27;4.40;;;4.40;1.00;;;;;;6292641;28;20257;-55
2022/12/27 06:15:33;;;;;;;9.10;4.63;;;4.40;1.00;;;;;;6281022;28;20244;-56
2022/12/27 06:18:38;;;;;;;8.77;4.53;;;4.40;1.00;;;;;;6280041;28;20613;-58
2022/12/27 06:21:41;;;;;;;8.23;4.53;;;4.20;1.00;;;;;;6276341;28;20229;-57
2022/12/27 06:24:44;;;;;;;9.07;4.53;;;4.30;1.00;;;;;;6288759;28;20252;-56
2022/12/27 06:27:47;;;;;;;5.13;4.70;;;4.30;1.00;;;;;;6292753;28;20241;-55
2022/12/27 06:30:51;;;;;;;4.40;4.10;;;4.10;1.00;;;;;;6295928;28;20241;-55
2022/12/27 06:33:55;;;;;;;5.20;4.77;;;4.30;1.00;;;;;;6309704;28;20482;-55
2022/12/27 06:36:58;;;;;;;9.07;4.57;;;4.10;1.00;;;;;;6291595;28;20773;-55
2022/12/27 06:40:01;;;;;;;4.87;4.47;;;4.20;1.00;;;;;;6309247;28;20244;-55
2022/12/27 06:43:04;;;;;;;5.23;4.67;;;4.20;1.00;;;;;;6296304;28;20237;-56
2022/12/27 06:46:12;;;;;;;10.13;4.50;;;4.00;1.00;;;;;;6297865;28;20766;-56
2022/12/27 06:49:19;;;;;;;5.57;4.23;;;4.20;1.00;;;;;;6310204;28;20312;-62
2022/12/27 06:52:23;;;;;;;7.13;4.47;;;4.20;1.00;;;;;;6308785;28;20241;-55
2022/12/27 06:55:25;;;;;;;7.83;4.13;;;4.00;1.00;;;;;;6309320;28;20240;-56
2022/12/27 06:58:29;;;;;;;7.83;4.27;;;4.20;1.00;;;;;;6302179;28;20241;-58
2022/12/27 07:01:33;;;;;;;7.43;4.27;;;4.40;1.00;;;;;;6309729;28;20240;-56
2022/12/27 07:04:38;;;;;;;5.00;4.60;;;4.10;1.00;;;;;;6283104;28;20304;-54
2022/12/27 07:07:41;;;;;;;5.90;5.03;;;4.00;1.00;;;;;;6296074;28;20241;-57
2022/12/27 07:10:44;;;;;;;5.67;4.13;;;4.10;1.00;;;;;;6288370;28;20686;-55
2022/12/27 07:13:48;;;;;;;5.00;4.60;;;4.20;1.00;;;;;;6301181;28;20244;-55
2022/12/27 07:16:52;;;;;;;8.43;4.57;;;4.20;1.00;;;;;;6308354;28;20236;-56
2022/12/27 07:19:55;;;;;;;5.83;4.90;;;4.30;1.00;;;;;;6308959;28;20621;-56
2022/12/27 07:22:58;;;;;;;5.17;4.63;;;4.10;1.00;;;;;;6307842;28;20233;-56
2022/12/27 07:26:03;;;;;;;5.57;4.93;;;4.00;1.00;;;;;;6309150;28;20228;-56
2022/12/27 07:29:06;;;;;;;5.13;4.40;;;4.10;1.00;;;;;;6307926;28;20497;-54
2022/12/27 07:32:10;;;;;;;5.93;4.30;;;4.30;1.00;;;;;;6303051;28;20687;-56
2022/12/27 07:35:13;;;;;;;9.20;5.27;;;4.20;1.00;;;;;;6284847;28;20240;-55
2022/12/27 07:38:16;;;;;;;7.60;4.53;;;4.20;1.00;;;;;;6299603;28;20494;-56
2022/12/27 07:41:20;;;;;;;6.50;4.47;;;4.40;1.00;;;;;;6293582;28;20710;-57
2022/12/27 07:44:23;;;;;;;6.40;4.20;;;4.20;1.00;;;;;;6281016;28;20221;-57
2022/12/27 07:47:27;;;;;;;7.23;4.33;;;4.20;1.00;;;;;;6276726;28;20240;-56
2022/12/27 07:50:30;;;;;;;6.27;4.90;;;4.30;1.00;;;;;;6283013;28;20244;-56
2022/12/27 07:53:33;;;;;;;5.03;4.63;;;4.30;1.00;;;;;;6279989;28;20741;-56
2022/12/27 07:56:36;;;;;;;5.53;4.93;;;4.50;1.00;;;;;;6295003;28;20236;-56
2022/12/27 07:59:39;;;;;;;12.10;4.97;;;4.40;1.00;;;;;;6307963;28;20236;-56
2022/12/27 08:02:45;;;;;;;9.27;5.07;;;4.80;1.00;;;;;;6296532;28;20229;-54
2022/12/27 08:05:51;;;;;;;8.17;4.80;;;4.60;1.00;;;;;;6308168;28;20331;-57
2022/12/27 08:08:56;;;;;;;5.23;4.30;;;4.40;1.00;;;;;;6301291;28;20327;-56
2022/12/27 08:11:59;;;;;;;4.73;4.40;;;4.50;1.00;;;;;;6293913;28;20233;-55
2022/12/27 08:15:02;;;;;;;4.70;4.40;;;4.50;1.00;;;;;;6294805;28;20745;-55
2022/12/27 08:18:07;;;;;;;6.80;4.37;;;4.70;1.00;;;;;;6276026;28;20242;-54
2022/12/27 08:21:10;;;;;;;5.03;4.30;;;4.50;1.00;;;;;;6300104;28;20250;-54
2022/12/27 08:24:13;;;;;;;6.20;4.53;;;4.50;1.00;;;;;;6301062;28;20236;-61
2022/12/27 08:27:21;;;;;;;5.70;4.77;;;4.50;1.00;;;;;;6286718;28;20774;-58
2022/12/27 08:30:24;;;;;;;6.87;4.83;;;4.50;1.00;;;;;;6303740;28;20229;-55
2022/12/27 08:33:29;;;;;;;10.03;4.40;;;4.60;1.00;;;;;;6292423;28;20237;-54
2022/12/27 08:36:32;;;;;;;5.77;4.80;;;4.60;1.00;;;;;;6291917;28;20236;-55
2022/12/27 08:39:54;;;;;;;5.53;4.50;;;4.50;1.00;;;;;;6305739;28;20484;-55
2022/12/27 08:43:04;;;;;;;4.67;4.37;;;4.70;1.00;;;;;;6295341;28;20322;-55
2022/12/27 08:46:08;;;;;;;4.90;4.40;;;4.70;1.00;;;;;;6296689;28;20255;-57
2022/12/27 08:49:12;;;;;;;5.00;4.60;;;4.80;1.00;;;;;;6285420;28;20248;-56
2022/12/27 08:52:15;;;;;;;4.97;4.53;;;4.70;1.00;;;;;;6287147;28;20237;-57
2022/12/27 08:55:18;;;;;;;5.23;4.73;;;4.70;1.00;;;;;;6305404;28;20609;-56
2022/12/27 08:58:21;;;;;;;5.30;4.73;;;4.90;1.00;;;;;;6306318;28;20339;-57
2022/12/27 09:01:25;;;;;;;5.57;4.37;;;4.90;1.00;;;;;;6307095;28;20607;-55
2022/12/27 09:04:29;;;;;;;5.00;4.10;;;5.20;1.00;;;;;;6294320;28;20283;-54
2022/12/27 09:07:32;;;;;;;5.00;4.60;;;4.90;1.00;;;;;;6271001;28;20229;-55
2022/12/27 09:10:36;;;;;;;4.83;4.63;;;4.90;1.00;;;;;;6297266;28;20232;-55
2022/12/27 09:13:39;;;;;;;7.80;4.10;;;4.90;1.00;;;;;;6288293;28;20252;-55
2022/12/27 09:16:42;;;;;;;5.10;4.60;;;5.00;1.00;;;;;;6302346;28;20229;-55
2022/12/27 09:19:46;;;;;;;6.87;4.90;;;4.80;1.00;;;;;;6305867;28;20240;-55
2022/12/27 09:22:50;;;;;;;6.00;5.70;;;5.00;1.00;;;;;;6289185;28;20616;-56
2022/12/27 09:25:53;;;;;;;6.17;5.23;;;5.00;1.00;;;;;;6306253;28;20373;-55
2022/12/27 09:28:57;;;;;;;7.50;4.70;;;5.20;1.00;;;;;;6305543;28;20731;-57
2022/12/27 09:32:00;;;;;;;7.90;4.93;;;5.00;1.00;;;;;;6303295;28;20297;-56
2022/12/27 09:35:05;;;;;;;5.03;4.53;;;4.90;1.00;;;;;;6302852;28;20243;-55
2022/12/27 09:38:08;;;;;;;7.77;4.83;;;4.90;1.00;;;;;;6288722;28;20351;-55
2022/12/27 09:41:19;;;;;;;7.67;4.77;;;5.20;1.00;;;;;;6305195;28;20229;-56
2022/12/27 09:44:49;;;;;;;6.27;5.00;;;4.90;1.00;;;;;;6296772;28;20381;-56
2022/12/27 09:47:56;;;;;;;5.40;5.00;;;5.20;1.00;;;;;;6295530;28;20629;-57
2022/12/27 09:51:05;;;;;;;4.90;4.50;;;5.30;1.00;;;;;;6285488;28;20643;-54
2022/12/27 09:54:14;;;;;;;6.07;4.53;;;5.40;1.00;;;;;;6304384;28;20232;-56
2022/12/27 09:57:20;;;;;;;5.27;4.83;;;5.40;1.00;;;;;;6290083;28;20228;-55
2022/12/27 10:00:24;;;;;;;8.13;5.23;;;5.70;1.00;;;;;;6304463;28;20224;-56
2022/12/27 10:03:37;;;;;;;6.97;5.27;;;5.70;1.00;;;;;;6298446;28;20385;-58
2022/12/27 10:06:56;;;;;;;5.60;5.00;;;5.90;1.00;;;;;;6296334;28;20264;-56
2022/12/27 10:10:08;;;;;;;4.93;4.47;;;6.10;1.00;;;;;;6285388;28;20338;-57
2022/12/27 10:13:24;;;;;;;5.27;4.70;;;6.10;1.00;;;;;;6292442;28;20253;-57
2022/12/27 10:16:32;;;;;;;5.57;4.77;;;6.30;1.00;;;;;;6294684;28;20615;-55
2022/12/27 10:19:44;;;;;;;8.37;4.67;;;6.40;1.00;;;;;;6309991;28;20244;-57
2022/12/27 10:22:52;;;;;;;4.50;4.17;;;6.00;1.00;;;;;;6308818;28;20635;-55
2022/12/27 10:25:58;;;;;;;5.80;5.30;;;6.20;1.00;;;;;;6297160;28;20233;-55
2022/12/27 10:29:11;;;;;;;5.97;5.40;;;6.20;1.00;;;;;;6284413;28;20256;-55
2022/12/27 10:32:16;;;;;;;5.57;5.17;;;6.30;1.00;;;;;;6297568;28;20873;-56
2022/12/27 10:35:21;;;;;;;5.17;4.73;;;6.10;1.00;;;;;;6285396;28;20242;-55
2022/12/27 10:38:31;;;;;;;5.33;4.87;;;6.30;1.00;;;;;;6285830;28;20255;-55
2022/12/27 10:41:43;;;;;;;6.03;4.93;;;6.30;1.00;;;;;;6295197;28;20240;-57
2022/12/27 10:44:46;;;;;;;4.87;4.67;;;6.40;1.00;;;;;;6288465;28;20658;-55
2022/12/27 10:47:49;;;;;;;5.53;5.00;;;6.50;1.00;;;;;;6300899;28;20382;-56
2022/12/27 10:50:56;;;;;;;5.57;5.17;;;6.30;1.00;;;;;;6307752;28;20236;-56
2022/12/27 10:54:03;;;;;;;5.63;5.00;;;6.50;1.00;;;;;;6286363;28;20246;-57
2022/12/27 10:57:18;;;;;;;6.50;5.10;;;6.10;1.00;;;;;;6308893;28;20316;-56
2022/12/27 11:00:23;;;;;;;5.60;5.10;;;6.40;1.00;;;;;;6296084;28;20261;-56
2022/12/27 11:03:27;;;;;;;11.03;5.03;;;6.20;1.00;;;;;;6304183;28;20828;-56
2022/12/27 11:06:30;;;;;;;8.63;4.90;;;6.30;1.00;;;;;;6306322;28;20232;-56
2022/12/27 11:09:35;;;;;;;6.77;5.33;;;6.20;1.00;;;;;;6308528;28;20240;-57
2022/12/27 11:12:38;;;;;;;5.63;5.07;;;6.40;1.00;;;;;;6304046;28;20233;-55
2022/12/27 11:15:44;;;;;;;8.93;5.97;;;6.10;1.00;;;;;;6298416;28;20708;-55
2022/12/27 11:18:52;;;;;;;8.50;5.17;;;6.20;1.00;;;;;;6290659;28;20237;-57
2022/12/27 11:21:56;;;;;;;5.83;5.10;;;6.10;1.00;;;;;;6302895;28;20229;-56
2022/12/27 11:25:00;;;;;;;5.67;5.17;;;6.00;1.00;;;;;;6309321;28;20717;-56
2022/12/27 11:28:06;;;;;;;6.23;5.63;;;6.00;1.00;;;;;;6309182;28;20613;-57
2022/12/27 11:31:11;;;;;;;7.60;5.43;;;6.30;1.00;;;;;;6306252;28;20228;-56
2022/12/27 11:34:18;;;;;;;6.90;5.53;;;6.40;1.00;;;;;;6296266;28;20267;-56
2022/12/27 11:37:24;;;;;;;5.73;5.33;;;6.10;1.00;;;;;;6283548;28;20238;-57
2022/12/27 11:40:33;;;;;;;10.10;5.20;;;6.00;1.00;;;;;;6287442;28;20419;-58
2022/12/27 11:43:43;;;;;;;5.70;5.20;;;6.40;1.00;;;;;;6294129;28;20233;-56
2022/12/27 11:46:52;;;;;;;7.73;5.97;;;6.10;1.00;;;;;;6298417;28;20357;-56
2022/12/27 11:50:14;;;;;;;6.13;5.63;;;6.10;1.00;;;;;;6305076;28;20263;-57
2022/12/27 11:53:49;;;;;;;6.37;5.77;;;6.00;1.00;;;;;;6304205;28;20248;-57
2022/12/27 11:57:15;;;;;;;7.73;5.73;;;6.40;1.00;;;;;;6291402;28;20709;-56
2022/12/27 12:00:21;;;;;;;6.87;5.57;;;6.40;1.00;;;;;;6284071;28;20230;-56
2022/12/27 12:03:57;;;;;;;7.33;5.53;;;6.50;1.00;;;;;;6280838;28;20623;-56
2022/12/27 12:07:07;;;;;;;8.07;5.27;;;6.20;1.00;;;;;;6292884;28;20327;-55
2022/12/27 12:10:20;;;;;;;8.80;5.97;;;6.60;1.00;;;;;;6285863;28;20230;-54
2022/12/27 12:14:02;;;;;;;6.70;6.10;;;6.40;1.00;;;;;;6287813;28;20388;-56
2022/12/27 12:17:21;;;;;;;11.77;5.90;;;6.30;1.00;;;;;;6294818;28;20656;-55
2022/12/27 12:20:50;;;;;;;8.07;5.13;;;6.60;1.00;;;;;;6300163;28;20359;-55
2022/12/27 12:24:19;;;;;;;6.80;4.70;;;6.30;1.00;;;;;;6282298;28;20916;-55
2022/12/27 12:27:31;;;;;;;8.00;5.30;;;6.60;1.00;;;;;;6289879;28;20229;-56
2022/12/27 12:30:57;;;;;;;7.50;6.00;;;6.50;1.00;;;;;;6290820;28;20351;-59
2022/12/27 12:34:15;;;;;;;5.70;5.30;;;6.60;1.00;;;;;;6291726;28;20236;-57
2022/12/27 12:37:30;;;;;;;7.67;5.37;;;6.50;1.00;;;;;;6303357;28;20747;-56
2022/12/27 12:40:55;;;;;;;6.27;5.70;;;6.40;1.00;;;;;;6306998;28;20233;-58
2022/12/27 12:44:37;;;;;;;9.33;5.50;;;6.50;1.00;;;;;;6283080;28;20617;-57
2022/12/27 12:48:07;;;;;;;7.90;5.03;;;6.70;1.00;;;;;;6283093;28;20238;-57
2022/12/27 12:51:25;;;;;;;7.00;5.10;;;6.60;1.00;;;;;;6291785;28;20229;-56
2022/12/27 12:55:04;;;;;;;5.27;4.67;;;7.00;1.00;;;;;;6305977;28;20228;-56
2022/12/27 12:58:17;;;;;;;6.37;5.77;;;6.90;1.00;;;;;;6288691;28;20228;-56
2022/12/27 13:01:42;;;;;;;6.57;5.23;;;6.90;1.00;;;;;;6303082;28;20722;-54
2022/12/27 13:05:11;;;;;;;10.83;5.43;;;6.90;1.00;;;;;;6273392;28;20233;-56
2022/12/27 13:08:23;;;;;;;5.93;5.03;;;6.90;1.00;;;;;;6304495;28;20252;-55
2022/12/27 13:11:41;;;;;;;7.17;5.40;;;7.00;1.00;;;;;;6306658;28;20228;-54
2022/12/27 13:15:07;;;;;;;8.30;4.60;;;7.00;1.00;;;;;;6306082;28;20241;-56
2022/12/27 13:18:22;;;;;;;6.00;5.17;;;7.10;1.00;;;;;;6283757;28;20562;-55
2022/12/27 13:21:51;;;;;;;6.53;5.30;;;7.40;1.00;;;;;;6295696;28;20321;-57
2022/12/27 13:25:05;;;;;;;8.53;6.30;;;7.10;1.00;;;;;;6297666;28;20339;-57
2022/12/27 13:28:28;;;;;;;6.13;5.10;;;7.20;1.00;;;;;;6292356;28;20237;-56
2022/12/27 13:31:40;;;;;;;8.23;4.97;;;6.90;1.00;;;;;;6295477;28;20240;-56
2022/12/27 13:34:53;;;;;;;6.30;5.17;;;6.70;1.00;;;;;;6284992;28;20253;-55
2022/12/27 13:38:12;;;;;;;7.20;5.17;;;6.90;1.00;;;;;;6283731;28;20244;-55
2022/12/27 13:41:31;;;;;;;7.10;4.73;;;7.10;1.00;;;;;;6281290;28;20229;-56
2022/12/27 13:44:44;;;;;;;5.27;4.97;;;7.00;1.00;;;;;;6282907;28;20617;-56
2022/12/27 13:47:58;;;;;;;9.17;5.07;;;6.70;1.00;;;;;;6284995;28;20240;-55
2022/12/27 13:51:16;;;;;;;5.03;4.60;;;6.60;1.00;;;;;;6287855;28;20229;-57
2022/12/27 13:55:08;;;;;;;7.67;5.00;;;6.60;1.00;;;;;;6301470;28;20259;-58
2022/12/27 13:58:48;;;;;;;5.33;4.90;;;6.70;1.00;;;;;;6238249;28;20418;-55
2022/12/27 14:02:32;;;;;;;6.27;4.90;;;6.60;1.00;;;;;;6236994;28;20224;-55
2022/12/27 14:06:16;;;;;;;5.73;4.80;;;6.80;1.00;;;;;;6257888;28;20248;-56
2022/12/27 14:09:50;;;;;;;6.70;5.60;;;6.50;1.00;;;;;;6295717;28;20233;-56
2022/12/27 14:13:03;;;;;;;6.63;5.23;;;6.50;1.00;;;;;;6287935;28;20629;-56
2022/12/27 14:16:32;;;;;;;4.77;4.53;;;6.60;1.00;;;;;;6301378;28;20259;-56
2022/12/27 14:20:16;;;;;;;8.40;5.03;;;6.70;1.00;;;;;;6280468;28;20243;-55
2022/12/27 14:23:48;;;;;;;6.27;5.73;;;6.40;1.00;;;;;;6288526;28;20248;-55
2022/12/27 14:27:36;;;;;;;6.57;5.87;;;6.20;1.00;;;;;;6289735;28;20232;-55
2022/12/27 14:31:08;;;;;;;5.40;5.00;;;6.60;1.00;;;;;;6272450;28;20233;-56
2022/12/27 14:34:59;;;;;;;8.90;5.60;;;6.30;1.00;;;;;;6280981;28;20226;-60
2022/12/27 14:38:40;;;;;;;5.37;5.07;;;6.30;1.00;;;;;;6288416;28;20252;-57
2022/12/27 14:42:09;;;;;;;6.40;5.67;;;6.10;1.00;;;;;;6284001;28;20229;-56
2022/12/27 14:45:57;;;;;;;6.13;5.57;;;6.30;1.00;;;;;;6300618;28;20233;-54
2022/12/27 14:49:41;;;;;;;9.40;5.50;;;6.30;1.00;;;;;;6282198;28;20239;-56
2022/12/27 14:53:21;;;;;;;5.60;5.13;;;6.00;1.00;;;;;;6283208;28;20588;-56
2022/12/27 14:56:32;;;;;;;5.70;5.13;;;6.00;1.00;;;;;;6295988;28;20260;-56
2022/12/27 14:59:47;;;;;;;6.00;5.40;;;6.20;1.00;;;;;;6294589;28;20233;-56
2022/12/27 15:03:19;;;;;;;7.80;5.87;;;5.80;1.00;;;;;;6281378;28;20717;-55
2022/12/27 15:06:52;;;;;;;7.20;5.70;;;6.10;1.00;;;;;;6293945;28;20766;-55
2022/12/27 15:10:04;;;;;;;10.60;5.40;;;5.90;1.00;;;;;;6298285;28;20694;-56
2022/12/27 15:13:14;;;;;;;7.03;5.33;;;5.70;1.00;;;;;;6283855;28;20488;-56
2022/12/27 15:16:28;;;;;;;7.47;5.50;;;5.70;1.00;;;;;;6277092;28;20270;-57
2022/12/27 15:19:47;;;;;;;6.33;5.73;;;6.00;1.00;;;;;;6302533;28;20237;-56
2022/12/27 15:23:03;;;;;;;9.23;5.93;;;5.70;1.00;;;;;;6286983;28;20629;-55
2022/12/27 15:26:17;;;;;;;5.87;5.37;;;5.70;1.00;;;;;;6288399;28;20737;-54
2022/12/27 15:29:35;;;;;;;9.00;6.17;;;5.70;1.00;;;;;;6296481;28;20271;-55
2022/12/27 15:32:47;;;;;;;8.87;6.10;;;5.50;1.00;;;;;;6284167;28;20230;-56
2022/12/27 15:36:02;;;;;;;9.97;5.90;;;5.80;1.00;;;;;;6296574;28;20240;-60
2022/12/27 15:39:48;;;;;;;10.60;5.87;;;5.70;1.00;;;;;;6291962;28;20693;-56
2022/12/27 15:42:57;;;;;;;6.93;5.50;;;5.70;1.00;;;;;;6297123;28;20630;-56
2022/12/27 15:46:16;;;;;;;7.13;6.20;;;5.70;1.00;;;;;;6294445;28;20247;-56
2022/12/27 15:49:38;;;;;;;8.80;5.63;;;5.40;1.00;;;;;;6295328;28;20300;-57
2022/12/27 15:53:04;;;;;;;6.53;5.90;;;5.80;1.00;;;;;;6289258;28;20237;-58
2022/12/27 15:56:37;;;;;;;7.50;5.83;;;5.50;1.00;;;;;;6295937;28;20241;-56
2022/12/27 15:59:45;;;;;;;7.63;6.67;;;5.30;1.00;;;;;;6295977;28;20371;-56
2022/12/27 16:02:54;;;;;;;9.30;6.23;;;5.30;1.00;;;;;;6284437;28;20712;-56
2022/12/27 16:05:58;;;;;;;11.57;6.10;;;5.30;1.00;;;;;;6277282;28;20244;-56
2022/12/27 16:09:22;;;;;;;7.47;6.70;;;5.40;1.00;;;;;;6297361;28;20276;-55
2022/12/27 16:12:39;;;;;;;6.57;6.07;;;5.20;1.00;;;;;;6287957;28;20240;-56
2022/12/27 16:15:51;;;;;;;8.10;6.43;;;5.20;1.00;;;;;;6307943;28;20263;-56
2022/12/27 16:19:17;;;;;;;8.90;6.30;;;5.00;1.00;;;;;;6306146;28;20247;-56
2022/12/27 16:22:32;;;;;;;7.37;6.63;;;4.90;1.00;;;;;;6303381;28;20244;-56
2022/12/27 16:25:37;;;;;;;6.87;5.70;;;5.00;1.00;;;;;;6301234;28;20697;-56
2022/12/27 16:28:50;;;;;;;11.87;7.00;;;4.90;1.00;;;;;;6290712;28;20379;-56
2022/12/27 16:32:15;;;;;;;6.83;6.20;;;5.00;1.00;;;;;;6307570;28;20233;-56
2022/12/27 16:35:18;;;;;;;6.23;5.83;;;4.80;1.00;;;;;;6286855;28;20229;-55
2022/12/27 16:38:22;;;;;;;7.63;6.77;;;4.90;1.00;;;;;;6302062;28;20239;-61
2022/12/27 16:41:40;;;;;;;9.30;6.20;;;4.90;1.00;;;;;;6307025;28;20744;-55
2022/12/27 16:45:02;;;;;;;6.93;6.13;;;5.00;1.00;;;;;;6294200;28;20240;-55
2022/12/27 16:48:17;;;;;;;10.13;6.00;;;4.70;1.00;;;;;;6306869;28;20297;-56
2022/12/27 16:51:31;;;;;;;7.23;6.53;;;4.80;1.00;;;;;;6290425;28;20237;-56
2022/12/27 16:54:48;;;;;;;7.17;6.50;;;5.10;1.00;;;;;;6303469;28;20240;-56
2022/12/27 16:57:51;;;;;;;9.63;6.03;;;4.70;1.00;;;;;;6278663;28;20903;-56
2022/12/27 17:00:57;;;;;;;6.30;5.80;;;4.90;1.00;;;;;;6305380;28;20243;-56
2022/12/27 17:04:01;;;;;;;6.87;6.13;;;4.90;1.00;;;;;;6290302;28;20229;-55
2022/12/27 17:07:05;;;;;;;6.60;6.13;;;4.80;1.00;;;;;;6282102;28;20237;-55
2022/12/27 17:10:32;;;;;;;8.23;6.43;;;4.90;1.00;;;;;;6282068;28;20588;-55
2022/12/27 17:13:42;;;;;;;6.43;6.03;;;4.80;1.00;;;;;;6279570;28;20237;-57
2022/12/27 17:16:50;;;;;;;5.97;5.67;;;4.60;1.00;;;;;;6279400;28;20601;-56
2022/12/27 17:19:59;;;;;;;7.70;6.03;;;4.90;1.00;;;;;;6281500;28;20584;-57
2022/12/27 17:23:04;;;;;;;7.00;6.07;;;4.60;1.00;;;;;;6283882;28;20742;-57
2022/12/27 17:26:20;;;;;;;6.80;6.20;;;4.80;1.00;;;;;;6289958;28;20237;-55
2022/12/27 17:30:05;;;;;;;6.53;6.10;;;4.60;1.00;;;;;;6304749;28;20599;-57
2022/12/27 17:33:27;;;;;;;9.57;6.50;;;4.90;1.00;;;;;;6299576;28;20236;-56
2022/12/27 17:36:45;;;;;;;9.83;6.33;;;4.80;1.00;;;;;;6302276;28;20240;-57
2022/12/27 17:40:05;;;;;;;6.90;6.30;;;4.80;1.00;;;;;;6298189;28;20253;-56
2022/12/27 17:46:52;;;;;;;7.17;6.70;;;4.70;1.00;;;;;;6286290;28;20331;-57
2022/12/27 17:49:58;;;;;;;9.10;7.20;;;4.60;1.00;;;;;;6288278;28;20245;-55
2022/12/27 18:00:06;;;;;;;8.07;7.37;;;4.70;1.00;;;;;;6297624;28;20236;-54
2022/12/27 18:03:12;;;;;;;8.60;7.80;;;4.40;1.00;;;;;;6304519;28;20413;-55
2022/12/27 18:06:20;;;;;;;9.03;8.13;;;4.40;1.00;;;;;;6272309;28;20259;-55
2022/12/27 18:09:34;;;;;;;9.00;8.33;;;4.40;1.00;;;;;;6301595;28;20239;-56
2022/12/27 18:12:39;;;;;;;9.10;8.20;;;4.30;1.00;;;;;;6305602;28;20312;-57
2022/12/27 18:15:45;;;;;;;8.90;8.00;;;4.50;1.00;;;;;;6300488;28;20247;-55
2022/12/27 18:18:50;;;;;;;10.03;9.00;;;4.40;1.00;;;;;;6301804;28;20240;-56
2022/12/27 18:21:57;;;;;;;8.80;8.20;;;4.20;1.00;;;;;;6301573;28;20236;-55
2022/12/27 18:25:00;;;;;;;8.67;8.07;;;4.20;1.00;;;;;;6302335;28;20224;-55
2022/12/27 18:28:05;;;;;;;9.43;8.60;;;4.60;1.00;;;;;;6305001;28;20443;-56
2022/12/27 18:31:14;;;;;;;8.87;7.97;;;4.50;1.00;;;;;;6305533;28;20386;-55
2022/12/27 18:34:24;;;;;;;10.63;8.40;;;4.40;1.00;;;;;;6295328;28;20229;-56
2022/12/27 18:37:29;;;;;;;9.60;8.57;;;4.30;1.00;;;;;;6294326;28;20357;-57
2022/12/27 18:40:33;;;;;;;9.83;8.80;;;4.60;1.00;;;;;;6298448;28;20229;-55
2022/12/27 18:43:42;;;;;;;9.87;9.00;;;4.30;1.00;;;;;;6293307;28;20240;-57
2022/12/27 18:46:49;;;;;;;11.63;8.93;;;4.30;1.00;;;;;;6297164;28;20264;-55
2022/12/27 18:49:55;;;;;;;11.30;9.67;;;4.20;1.00;;;;;;6302948;28;20489;-56